Ocean Majesty — CQSC — position and weather

sailwx.info

Track history (hours):
 
Tides and Currents Weather Stations Pressure Air Temp Water Temp Dewpoint Dewpoint Depression Visibility Wind Speed Wind Dir Waves Ship Positions

Ocean Majesty

Last reported at 2014-Jul-30 17:33 UTC. Time now 2014-Jul-31 15:43 UTC.
Position N 56°49' E 011°49'.

Length 136 m; draft 6.3 m.

Type: Passenger vessel. MMSI: 255717000.

Date/timePositionNaut miles runAvg speedWind from/ knotsBaromVisibWave heightAir tempDewpointWater temp
2014-Jul-30 17:33N 56°49' E 011°49'1716.8
2014-Jul-30 16:33N 57°04' E 011°38'1616.6
2014-Jul-30 15:33N 57°20' E 011°29'1616.2
2014-Jul-30 14:33N 57°34' E 011°12'1716.9
2014-Jul-30 13:33N 57°45' E 010°49'1716.9
2014-Jul-30 12:33N 57°47' E 010°18'14415.9
2014-Jul-30 03:33N 58°04' E 005°49'5515.9
2014-Jul-30 00:07N 58°50' E 004°55'1015.9
2014-Jul-29 23:28N 59°00' E 004°49'395 7.7
2014-Jul-27 20:27N 64°51' E 011°13'1314.1
2014-Jul-27 19:33N 65°01' E 011°32'6515.7
2014-Jul-27 15:26N 66°01' E 012°32'1916.7
2014-Jul-27 14:18N 66°17' E 012°56'1316.7
2014-Jul-27 13:30N 66°30' E 012°58'2016.0
2014-Jul-27 12:15N 66°49' E 013°16'1214.6
2014-Jul-27 11:28N 66°58' E 013°34'1516.3
2014-Jul-27 10:33N 67°08' E 014°01'1716.7
2014-Jul-27 09:34N 67°22' E 014°25'1616.4
2014-Jul-27 08:33N 67°38' E 014°18'263 9.4
2014-Jul-26 04:32N 70°38' E 023°18'  
2014-Jul-20 23:09N 66°36' E 013°04'1115.3
2014-Jul-20 22:24N 66°25' E 012°59'1416.8
2014-Jul-20 21:33N 66°11' E 012°51'  
Track history (hours):
 
Tides and Currents Weather Stations Pressure Air Temp Water Temp Dewpoint Dewpoint Depression Visibility Wind Speed Wind Dir Waves Ship Positions

Ocean Majesty

Last reported at 2014-Jul-30 17:33 UTC. Time now 2014-Jul-31 15:43 UTC.
Position N 56°49' E 011°49'.

Length 136 m; draft 6.3 m.

Type: Passenger vessel. MMSI: 255717000.

Date/timePositionNaut miles runAvg speedWind from/ knotsBaromVisibWave heightAir tempDewpointWater temp
2014-Jul-30 17:33N 56°49' E 011°49'1716.8
2014-Jul-30 16:33N 57°04' E 011°38'1616.6
2014-Jul-30 15:33N 57°20' E 011°29'1616.2
2014-Jul-30 14:33N 57°34' E 011°12'1716.9
2014-Jul-30 13:33N 57°45' E 010°49'1716.9
2014-Jul-30 12:33N 57°47' E 010°18'14415.9
2014-Jul-30 03:33N 58°04' E 005°49'5515.9
2014-Jul-30 00:07N 58°50' E 004°55'1015.9
2014-Jul-29 23:28N 59°00' E 004°49'395 7.7
2014-Jul-27 20:27N 64°51' E 011°13'1314.1
2014-Jul-27 19:33N 65°01' E 011°32'6515.7
2014-Jul-27 15:26N 66°01' E 012°32'1916.7
2014-Jul-27 14:18N 66°17' E 012°56'1316.7
2014-Jul-27 13:30N 66°30' E 012°58'2016.0
2014-Jul-27 12:15N 66°49' E 013°16'1214.6
2014-Jul-27 11:28N 66°58' E 013°34'1516.3
2014-Jul-27 10:33N 67°08' E 014°01'1716.7
2014-Jul-27 09:34N 67°22' E 014°25'1616.4
2014-Jul-27 08:33N 67°38' E 014°18'263 9.4
2014-Jul-26 04:32N 70°38' E 023°18'  
2014-Jul-20 23:09N 66°36' E 013°04'1115.3
2014-Jul-20 22:24N 66°25' E 012°59'1416.8
2014-Jul-20 21:33N 66°11' E 012°51'  

Dump ship's entire track history